sensor_id;sensor_type;location;lat;lon;timestamp;P1;durP1;ratioP1;P2;durP2;ratioP2
12493;SDS011;8260;51.422;6.786;2023-02-28T00:01:26;6.07;;;5.27;;
12493;SDS011;8260;51.422;6.786;2023-02-28T00:03:57;8.43;;;5.97;;
12493;SDS011;8260;51.422;6.786;2023-02-28T00:06:26;8.10;;;6.13;;
12493;SDS011;8260;51.422;6.786;2023-02-28T00:08:54;8.53;;;6.07;;
12493;SDS011;8260;51.422;6.786;2023-02-28T00:11:23;10.47;;;6.27;;
12493;SDS011;8260;51.422;6.786;2023-02-28T00:13:52;7.60;;;5.63;;
12493;SDS011;8260;51.422;6.786;2023-02-28T00:16:21;9.60;;;6.20;;
12493;SDS011;8260;51.422;6.786;2023-02-28T00:18:49;7.77;;;5.90;;
12493;SDS011;8260;51.422;6.786;2023-02-28T00:21:19;10.83;;;6.47;;
12493;SDS011;8260;51.422;6.786;2023-02-28T00:23:48;7.73;;;5.60;;
12493;SDS011;8260;51.422;6.786;2023-02-28T00:26:16;8.87;;;6.13;;
12493;SDS011;8260;51.422;6.786;2023-02-28T00:28:47;8.83;;;6.10;;
12493;SDS011;8260;51.422;6.786;2023-02-28T00:31:15;11.67;;;6.47;;
12493;SDS011;8260;51.422;6.786;2023-02-28T00:33:44;8.33;;;6.53;;
12493;SDS011;8260;51.422;6.786;2023-02-28T00:36:12;8.53;;;5.93;;
12493;SDS011;8260;51.422;6.786;2023-02-28T00:38:42;9.97;;;6.13;;
12493;SDS011;8260;51.422;6.786;2023-02-28T00:41:11;8.40;;;5.97;;
12493;SDS011;8260;51.422;6.786;2023-02-28T00:43:39;10.07;;;6.03;;
12493;SDS011;8260;51.422;6.786;2023-02-28T00:46:08;8.73;;;6.27;;
12493;SDS011;8260;51.422;6.786;2023-02-28T00:48:37;8.03;;;5.53;;
12493;SDS011;8260;51.422;6.786;2023-02-28T00:51:05;7.20;;;5.60;;
12493;SDS011;8260;51.422;6.786;2023-02-28T00:53:34;11.07;;;6.63;;
12493;SDS011;8260;51.422;6.786;2023-02-28T00:56:04;7.30;;;6.13;;
12493;SDS011;8260;51.422;6.786;2023-02-28T00:58:32;9.27;;;5.83;;
12493;SDS011;8260;51.422;6.786;2023-02-28T01:01:01;7.53;;;6.10;;
12493;SDS011;8260;51.422;6.786;2023-02-28T01:03:29;11.23;;;6.53;;
12493;SDS011;8260;51.422;6.786;2023-02-28T01:05:58;7.17;;;6.07;;
12493;SDS011;8260;51.422;6.786;2023-02-28T01:08:26;10.17;;;6.50;;
12493;SDS011;8260;51.422;6.786;2023-02-28T01:10:55;9.37;;;6.63;;
12493;SDS011;8260;51.422;6.786;2023-02-28T01:13:25;7.40;;;6.57;;
12493;SDS011;8260;51.422;6.786;2023-02-28T01:15:55;10.57;;;6.53;;
12493;SDS011;8260;51.422;6.786;2023-02-28T01:18:23;9.97;;;6.40;;
12493;SDS011;8260;51.422;6.786;2023-02-28T01:20:52;10.10;;;5.77;;
12493;SDS011;8260;51.422;6.786;2023-02-28T01:23:21;8.23;;;5.77;;
12493;SDS011;8260;51.422;6.786;2023-02-28T01:25:50;9.47;;;6.00;;
12493;SDS011;8260;51.422;6.786;2023-02-28T01:28:18;9.87;;;5.83;;
12493;SDS011;8260;51.422;6.786;2023-02-28T01:30:49;9.07;;;5.60;;
12493;SDS011;8260;51.422;6.786;2023-02-28T01:33:18;7.77;;;5.57;;
12493;SDS011;8260;51.422;6.786;2023-02-28T01:35:46;10.23;;;5.43;;
12493;SDS011;8260;51.422;6.786;2023-02-28T01:38:15;6.83;;;4.97;;
12493;SDS011;8260;51.422;6.786;2023-02-28T01:40:48;8.80;;;5.50;;
12493;SDS011;8260;51.422;6.786;2023-02-28T01:43:19;9.80;;;5.47;;
12493;SDS011;8260;51.422;6.786;2023-02-28T01:45:49;10.50;;;5.33;;
12493;SDS011;8260;51.422;6.786;2023-02-28T01:48:18;6.83;;;5.57;;
12493;SDS011;8260;51.422;6.786;2023-02-28T01:50:47;6.50;;;5.03;;
12493;SDS011;8260;51.422;6.786;2023-02-28T01:53:17;6.63;;;4.90;;
12493;SDS011;8260;51.422;6.786;2023-02-28T01:55:46;7.17;;;5.00;;
12493;SDS011;8260;51.422;6.786;2023-02-28T01:58:17;7.43;;;5.40;;
12493;SDS011;8260;51.422;6.786;2023-02-28T02:00:45;7.50;;;5.20;;
12493;SDS011;8260;51.422;6.786;2023-02-28T02:03:16;9.57;;;5.37;;
12493;SDS011;8260;51.422;6.786;2023-02-28T02:05:46;6.40;;;4.77;;
12493;SDS011;8260;51.422;6.786;2023-02-28T02:08:16;6.63;;;5.00;;
12493;SDS011;8260;51.422;6.786;2023-02-28T02:10:46;7.50;;;4.87;;
12493;SDS011;8260;51.422;6.786;2023-02-28T02:13:29;6.20;;;4.50;;
12493;SDS011;8260;51.422;6.786;2023-02-28T02:16:02;9.00;;;4.23;;
12493;SDS011;8260;51.422;6.786;2023-02-28T02:18:33;8.17;;;4.47;;
12493;SDS011;8260;51.422;6.786;2023-02-28T02:21:19;9.90;;;4.27;;
12493;SDS011;8260;51.422;6.786;2023-02-28T02:24:03;7.80;;;4.03;;
12493;SDS011;8260;51.422;6.786;2023-02-28T02:26:50;10.97;;;4.63;;
12493;SDS011;8260;51.422;6.786;2023-02-28T02:34:58;7.23;;;4.27;;
12493;SDS011;8260;51.422;6.786;2023-02-28T02:37:29;6.13;;;4.07;;
12493;SDS011;8260;51.422;6.786;2023-02-28T02:40:00;7.57;;;3.50;;
12493;SDS011;8260;51.422;6.786;2023-02-28T02:42:33;10.07;;;4.20;;
12493;SDS011;8260;51.422;6.786;2023-02-28T02:45:05;5.23;;;3.83;;
12493;SDS011;8260;51.422;6.786;2023-02-28T02:47:34;5.53;;;4.03;;
12493;SDS011;8260;51.422;6.786;2023-02-28T02:50:06;6.00;;;4.10;;
12493;SDS011;8260;51.422;6.786;2023-02-28T02:52:38;7.30;;;4.27;;
12493;SDS011;8260;51.422;6.786;2023-02-28T02:55:07;7.00;;;4.00;;
12493;SDS011;8260;51.422;6.786;2023-02-28T02:57:38;10.50;;;4.73;;
12493;SDS011;8260;51.422;6.786;2023-02-28T03:00:09;7.40;;;4.07;;
12493;SDS011;8260;51.422;6.786;2023-02-28T03:02:39;7.17;;;4.23;;
12493;SDS011;8260;51.422;6.786;2023-02-28T03:05:19;7.23;;;4.03;;
12493;SDS011;8260;51.422;6.786;2023-02-28T03:07:48;5.33;;;4.17;;
12493;SDS011;8260;51.422;6.786;2023-02-28T03:10:30;4.80;;;4.30;;
12493;SDS011;8260;51.422;6.786;2023-02-28T03:15:50;6.87;;;4.33;;
12493;SDS011;8260;51.422;6.786;2023-02-28T03:18:21;6.03;;;4.20;;
12493;SDS011;8260;51.422;6.786;2023-02-28T03:20:54;5.60;;;4.30;;
12493;SDS011;8260;51.422;6.786;2023-02-28T03:23:28;6.23;;;4.10;;
12493;SDS011;8260;51.422;6.786;2023-02-28T03:26:01;7.33;;;4.00;;
12493;SDS011;8260;51.422;6.786;2023-02-28T03:28:31;5.80;;;4.03;;
12493;SDS011;8260;51.422;6.786;2023-02-28T03:31:00;6.87;;;3.40;;
12493;SDS011;8260;51.422;6.786;2023-02-28T03:33:32;7.53;;;4.63;;
12493;SDS011;8260;51.422;6.786;2023-02-28T03:36:04;5.57;;;4.00;;
12493;SDS011;8260;51.422;6.786;2023-02-28T03:38:35;6.20;;;4.10;;
12493;SDS011;8260;51.422;6.786;2023-02-28T03:41:05;7.10;;;4.03;;
12493;SDS011;8260;51.422;6.786;2023-02-28T03:43:36;7.23;;;4.60;;
12493;SDS011;8260;51.422;6.786;2023-02-28T03:46:07;6.43;;;4.67;;
12493;SDS011;8260;51.422;6.786;2023-02-28T03:48:38;6.00;;;4.00;;
12493;SDS011;8260;51.422;6.786;2023-02-28T03:51:10;8.13;;;4.33;;
12493;SDS011;8260;51.422;6.786;2023-02-28T03:53:40;9.07;;;4.67;;
12493;SDS011;8260;51.422;6.786;2023-02-28T03:56:11;7.00;;;4.50;;
12493;SDS011;8260;51.422;6.786;2023-02-28T03:58:43;6.57;;;4.40;;
12493;SDS011;8260;51.422;6.786;2023-02-28T04:01:14;6.70;;;4.60;;
12493;SDS011;8260;51.422;6.786;2023-02-28T04:03:43;5.63;;;4.13;;
12493;SDS011;8260;51.422;6.786;2023-02-28T04:06:15;6.67;;;5.03;;
12493;SDS011;8260;51.422;6.786;2023-02-28T04:08:44;6.17;;;5.40;;
12493;SDS011;8260;51.422;6.786;2023-02-28T04:11:16;8.73;;;4.13;;
12493;SDS011;8260;51.422;6.786;2023-02-28T04:13:46;9.80;;;4.73;;
12493;SDS011;8260;51.422;6.786;2023-02-28T04:16:15;7.20;;;4.60;;
12493;SDS011;8260;51.422;6.786;2023-02-28T04:19:00;6.13;;;4.77;;
12493;SDS011;8260;51.422;6.786;2023-02-28T04:21:31;6.70;;;4.53;;
12493;SDS011;8260;51.422;6.786;2023-02-28T04:24:00;6.27;;;5.00;;
12493;SDS011;8260;51.422;6.786;2023-02-28T04:26:29;7.57;;;5.10;;
12493;SDS011;8260;51.422;6.786;2023-02-28T04:28:58;9.23;;;5.57;;
12493;SDS011;8260;51.422;6.786;2023-02-28T04:31:26;6.83;;;4.90;;
12493;SDS011;8260;51.422;6.786;2023-02-28T04:33:55;8.17;;;5.00;;
12493;SDS011;8260;51.422;6.786;2023-02-28T04:36:24;8.37;;;5.37;;
12493;SDS011;8260;51.422;6.786;2023-02-28T04:38:54;7.83;;;5.20;;
12493;SDS011;8260;51.422;6.786;2023-02-28T04:41:22;7.87;;;4.80;;
12493;SDS011;8260;51.422;6.786;2023-02-28T04:43:51;6.27;;;4.97;;
12493;SDS011;8260;51.422;6.786;2023-02-28T04:46:19;8.50;;;5.67;;
12493;SDS011;8260;51.422;6.786;2023-02-28T04:48:48;8.17;;;4.93;;
12493;SDS011;8260;51.422;6.786;2023-02-28T04:51:17;7.70;;;5.03;;
12493;SDS011;8260;51.422;6.786;2023-02-28T04:53:47;7.17;;;5.07;;
12493;SDS011;8260;51.422;6.786;2023-02-28T04:56:18;6.77;;;4.57;;
12493;SDS011;8260;51.422;6.786;2023-02-28T04:58:46;6.53;;;4.33;;
12493;SDS011;8260;51.422;6.786;2023-02-28T05:01:16;5.77;;;4.53;;
12493;SDS011;8260;51.422;6.786;2023-02-28T05:03:45;7.30;;;4.90;;
12493;SDS011;8260;51.422;6.786;2023-02-28T05:06:14;7.03;;;4.67;;
12493;SDS011;8260;51.422;6.786;2023-02-28T05:08:43;7.70;;;4.60;;
12493;SDS011;8260;51.422;6.786;2023-02-28T05:11:15;7.70;;;5.20;;
12493;SDS011;8260;51.422;6.786;2023-02-28T05:13:46;5.83;;;3.87;;
12493;SDS011;8260;51.422;6.786;2023-02-28T05:16:15;8.00;;;4.90;;
12493;SDS011;8260;51.422;6.786;2023-02-28T05:18:43;8.27;;;4.67;;
12493;SDS011;8260;51.422;6.786;2023-02-28T05:21:20;5.53;;;4.33;;
12493;SDS011;8260;51.422;6.786;2023-02-28T05:23:51;6.10;;;4.50;;
12493;SDS011;8260;51.422;6.786;2023-02-28T05:26:20;5.73;;;4.00;;
12493;SDS011;8260;51.422;6.786;2023-02-28T05:28:50;6.27;;;4.20;;
12493;SDS011;8260;51.422;6.786;2023-02-28T05:31:18;9.07;;;3.87;;
12493;SDS011;8260;51.422;6.786;2023-02-28T05:33:47;6.90;;;4.60;;
12493;SDS011;8260;51.422;6.786;2023-02-28T05:36:15;5.23;;;4.27;;
12493;SDS011;8260;51.422;6.786;2023-02-28T05:38:45;6.20;;;3.90;;
12493;SDS011;8260;51.422;6.786;2023-02-28T05:41:14;3.83;;;3.43;;
12493;SDS011;8260;51.422;6.786;2023-02-28T05:43:43;4.33;;;3.93;;
12493;SDS011;8260;51.422;6.786;2023-02-28T05:46:13;8.63;;;3.87;;
12493;SDS011;8260;51.422;6.786;2023-02-28T05:48:41;5.77;;;3.80;;
12493;SDS011;8260;51.422;6.786;2023-02-28T05:51:10;8.70;;;4.40;;
12493;SDS011;8260;51.422;6.786;2023-02-28T05:53:39;7.40;;;4.23;;
12493;SDS011;8260;51.422;6.786;2023-02-28T05:56:07;8.37;;;4.03;;
12493;SDS011;8260;51.422;6.786;2023-02-28T05:58:36;9.40;;;3.60;;
12493;SDS011;8260;51.422;6.786;2023-02-28T06:03:49;8.20;;;4.20;;
12493;SDS011;8260;51.422;6.786;2023-02-28T06:06:18;7.00;;;4.27;;
12493;SDS011;8260;51.422;6.786;2023-02-28T06:08:46;5.40;;;3.50;;
12493;SDS011;8260;51.422;6.786;2023-02-28T06:11:14;4.20;;;3.30;;
12493;SDS011;8260;51.422;6.786;2023-02-28T06:13:43;5.13;;;3.53;;
12493;SDS011;8260;51.422;6.786;2023-02-28T06:16:12;5.57;;;3.67;;
12493;SDS011;8260;51.422;6.786;2023-02-28T06:18:40;3.90;;;3.20;;
12493;SDS011;8260;51.422;6.786;2023-02-28T06:21:11;7.33;;;3.47;;
12493;SDS011;8260;51.422;6.786;2023-02-28T06:23:40;3.93;;;3.13;;
12493;SDS011;8260;51.422;6.786;2023-02-28T06:26:08;7.53;;;3.83;;
12493;SDS011;8260;51.422;6.786;2023-02-28T06:28:36;5.70;;;3.50;;
12493;SDS011;8260;51.422;6.786;2023-02-28T06:31:06;7.07;;;3.57;;
12493;SDS011;8260;51.422;6.786;2023-02-28T06:33:35;8.40;;;3.53;;
12493;SDS011;8260;51.422;6.786;2023-02-28T06:36:04;7.33;;;3.77;;
12493;SDS011;8260;51.422;6.786;2023-02-28T06:38:33;7.43;;;3.70;;
12493;SDS011;8260;51.422;6.786;2023-02-28T06:41:02;4.17;;;3.40;;
12493;SDS011;8260;51.422;6.786;2023-02-28T06:43:33;5.60;;;3.50;;
12493;SDS011;8260;51.422;6.786;2023-02-28T06:46:05;8.20;;;3.17;;
12493;SDS011;8260;51.422;6.786;2023-02-28T06:48:34;5.40;;;3.53;;
12493;SDS011;8260;51.422;6.786;2023-02-28T06:51:03;7.53;;;3.60;;
12493;SDS011;8260;51.422;6.786;2023-02-28T06:53:33;6.87;;;4.80;;
12493;SDS011;8260;51.422;6.786;2023-02-28T06:56:03;7.17;;;3.77;;
12493;SDS011;8260;51.422;6.786;2023-02-28T06:58:32;6.37;;;3.53;;
12493;SDS011;8260;51.422;6.786;2023-02-28T07:01:01;4.67;;;3.63;;
12493;SDS011;8260;51.422;6.786;2023-02-28T07:03:29;3.90;;;3.00;;
12493;SDS011;8260;51.422;6.786;2023-02-28T07:05:59;4.97;;;3.47;;
12493;SDS011;8260;51.422;6.786;2023-02-28T07:08:29;5.80;;;3.87;;
12493;SDS011;8260;51.422;6.786;2023-02-28T07:10:59;6.97;;;3.60;;
12493;SDS011;8260;51.422;6.786;2023-02-28T07:13:27;5.57;;;3.90;;
12493;SDS011;8260;51.422;6.786;2023-02-28T07:15:56;6.13;;;3.50;;
12493;SDS011;8260;51.422;6.786;2023-02-28T07:18:25;8.10;;;3.70;;
12493;SDS011;8260;51.422;6.786;2023-02-28T07:20:54;5.43;;;3.73;;
12493;SDS011;8260;51.422;6.786;2023-02-28T07:23:23;5.87;;;3.83;;
12493;SDS011;8260;51.422;6.786;2023-02-28T07:25:51;4.73;;;3.40;;
12493;SDS011;8260;51.422;6.786;2023-02-28T07:28:21;6.23;;;3.37;;
12493;SDS011;8260;51.422;6.786;2023-02-28T07:30:49;6.80;;;4.23;;
12493;SDS011;8260;51.422;6.786;2023-02-28T07:33:18;6.57;;;4.07;;
12493;SDS011;8260;51.422;6.786;2023-02-28T07:35:46;8.67;;;4.50;;
12493;SDS011;8260;51.422;6.786;2023-02-28T07:38:15;4.70;;;3.80;;
12493;SDS011;8260;51.422;6.786;2023-02-28T07:40:43;5.03;;;3.50;;
12493;SDS011;8260;51.422;6.786;2023-02-28T07:43:12;4.20;;;3.50;;
12493;SDS011;8260;51.422;6.786;2023-02-28T07:45:42;8.83;;;4.70;;
12493;SDS011;8260;51.422;6.786;2023-02-28T07:48:10;9.20;;;4.17;;
12493;SDS011;8260;51.422;6.786;2023-02-28T07:50:38;5.60;;;4.50;;
12493;SDS011;8260;51.422;6.786;2023-02-28T07:53:07;6.13;;;3.70;;
12493;SDS011;8260;51.422;6.786;2023-02-28T07:55:35;7.77;;;4.10;;
12493;SDS011;8260;51.422;6.786;2023-02-28T07:58:04;4.93;;;3.70;;
12493;SDS011;8260;51.422;6.786;2023-02-28T08:00:32;5.93;;;3.63;;
12493;SDS011;8260;51.422;6.786;2023-02-28T08:03:02;6.30;;;3.43;;
12493;SDS011;8260;51.422;6.786;2023-02-28T08:05:31;4.57;;;3.33;;
12493;SDS011;8260;51.422;6.786;2023-02-28T08:08:02;8.50;;;3.63;;
12493;SDS011;8260;51.422;6.786;2023-02-28T08:10:30;5.10;;;3.53;;
12493;SDS011;8260;51.422;6.786;2023-02-28T08:12:58;4.43;;;3.20;;
12493;SDS011;8260;51.422;6.786;2023-02-28T08:15:27;5.67;;;3.70;;
12493;SDS011;8260;51.422;6.786;2023-02-28T08:17:56;3.97;;;3.40;;
12493;SDS011;8260;51.422;6.786;2023-02-28T08:20:25;5.90;;;3.17;;
12493;SDS011;8260;51.422;6.786;2023-02-28T08:22:54;4.83;;;3.37;;
12493;SDS011;8260;51.422;6.786;2023-02-28T08:25:22;3.57;;;2.90;;
12493;SDS011;8260;51.422;6.786;2023-02-28T08:27:51;6.63;;;3.60;;
12493;SDS011;8260;51.422;6.786;2023-02-28T08:30:19;4.00;;;3.47;;
12493;SDS011;8260;51.422;6.786;2023-02-28T08:32:48;4.13;;;2.97;;
12493;SDS011;8260;51.422;6.786;2023-02-28T08:35:16;3.37;;;3.07;;
12493;SDS011;8260;51.422;6.786;2023-02-28T08:37:48;3.70;;;3.10;;
12493;SDS011;8260;51.422;6.786;2023-02-28T08:40:16;4.37;;;3.17;;
12493;SDS011;8260;51.422;6.786;2023-02-28T08:42:45;5.67;;;3.43;;
12493;SDS011;8260;51.422;6.786;2023-02-28T08:45:14;4.63;;;3.83;;
12493;SDS011;8260;51.422;6.786;2023-02-28T08:47:42;5.70;;;3.23;;
12493;SDS011;8260;51.422;6.786;2023-02-28T08:50:11;4.23;;;3.03;;
12493;SDS011;8260;51.422;6.786;2023-02-28T08:52:41;4.07;;;2.90;;
12493;SDS011;8260;51.422;6.786;2023-02-28T08:55:11;4.57;;;3.03;;
12493;SDS011;8260;51.422;6.786;2023-02-28T08:57:40;5.73;;;3.30;;
12493;SDS011;8260;51.422;6.786;2023-02-28T09:00:09;3.97;;;2.97;;
12493;SDS011;8260;51.422;6.786;2023-02-28T09:02:39;5.20;;;3.10;;
12493;SDS011;8260;51.422;6.786;2023-02-28T09:05:10;4.90;;;2.97;;
12493;SDS011;8260;51.422;6.786;2023-02-28T09:07:38;4.43;;;2.90;;
12493;SDS011;8260;51.422;6.786;2023-02-28T09:10:07;3.63;;;2.73;;
12493;SDS011;8260;51.422;6.786;2023-02-28T09:12:37;3.30;;;2.87;;
12493;SDS011;8260;51.422;6.786;2023-02-28T09:15:06;5.07;;;3.10;;
12493;SDS011;8260;51.422;6.786;2023-02-28T09:17:35;3.30;;;2.83;;
12493;SDS011;8260;51.422;6.786;2023-02-28T09:20:04;3.33;;;2.37;;
12493;SDS011;8260;51.422;6.786;2023-02-28T09:22:33;3.20;;;2.80;;
12493;SDS011;8260;51.422;6.786;2023-02-28T09:25:01;3.40;;;2.50;;
12493;SDS011;8260;51.422;6.786;2023-02-28T09:27:30;2.40;;;2.13;;
12493;SDS011;8260;51.422;6.786;2023-02-28T09:30:00;3.50;;;2.50;;
12493;SDS011;8260;51.422;6.786;2023-02-28T09:32:30;3.30;;;2.50;;
12493;SDS011;8260;51.422;6.786;2023-02-28T09:34:59;3.10;;;2.80;;
12493;SDS011;8260;51.422;6.786;2023-02-28T09:37:28;3.70;;;2.30;;
12493;SDS011;8260;51.422;6.786;2023-02-28T09:39:57;4.80;;;2.63;;
12493;SDS011;8260;51.422;6.786;2023-02-28T09:42:28;5.03;;;2.30;;
12493;SDS011;8260;51.422;6.786;2023-02-28T09:45:01;4.47;;;2.45;;
12493;SDS011;8260;51.422;6.786;2023-02-28T09:47:32;3.53;;;2.50;;
12493;SDS011;8260;51.422;6.786;2023-02-28T09:50:03;4.63;;;2.73;;
12493;SDS011;8260;51.422;6.786;2023-02-28T09:52:35;3.63;;;2.50;;
12493;SDS011;8260;51.422;6.786;2023-02-28T09:55:10;3.58;;;2.55;;
12493;SDS011;8260;51.422;6.786;2023-02-28T09:57:44;3.55;;;2.63;;
12493;SDS011;8260;51.422;6.786;2023-02-28T10:00:15;2.67;;;2.47;;
12493;SDS011;8260;51.422;6.786;2023-02-28T10:02:48;5.33;;;3.37;;
12493;SDS011;8260;51.422;6.786;2023-02-28T10:05:21;3.80;;;2.47;;
12493;SDS011;8260;51.422;6.786;2023-02-28T10:08:01;4.82;;;2.85;;
12493;SDS011;8260;51.422;6.786;2023-02-28T10:10:33;3.13;;;2.33;;
12493;SDS011;8260;51.422;6.786;2023-02-28T10:13:05;3.15;;;2.53;;
12493;SDS011;8260;51.422;6.786;2023-02-28T10:15:36;2.95;;;2.50;;
12493;SDS011;8260;51.422;6.786;2023-02-28T10:18:06;2.47;;;2.28;;
12493;SDS011;8260;51.422;6.786;2023-02-28T10:20:39;3.53;;;2.10;;
12493;SDS011;8260;51.422;6.786;2023-02-28T10:23:11;2.30;;;2.10;;
12493;SDS011;8260;51.422;6.786;2023-02-28T10:25:41;4.18;;;2.45;;
12493;SDS011;8260;51.422;6.786;2023-02-28T10:28:14;2.75;;;2.08;;
12493;SDS011;8260;51.422;6.786;2023-02-28T10:30:46;2.47;;;2.13;;
12493;SDS011;8260;51.422;6.786;2023-02-28T10:33:19;3.50;;;1.92;;
12493;SDS011;8260;51.422;6.786;2023-02-28T10:35:49;4.60;;;2.13;;
12493;SDS011;8260;51.422;6.786;2023-02-28T10:38:19;2.63;;;2.15;;
12493;SDS011;8260;51.422;6.786;2023-02-28T10:40:48;2.30;;;2.10;;
12493;SDS011;8260;51.422;6.786;2023-02-28T10:43:20;2.50;;;1.98;;
12493;SDS011;8260;51.422;6.786;2023-02-28T10:45:55;2.88;;;2.10;;
12493;SDS011;8260;51.422;6.786;2023-02-28T10:48:29;2.85;;;2.13;;
12493;SDS011;8260;51.422;6.786;2023-02-28T10:50:58;2.28;;;2.00;;
12493;SDS011;8260;51.422;6.786;2023-02-28T10:53:34;2.50;;;2.05;;
12493;SDS011;8260;51.422;6.786;2023-02-28T10:56:24;2.40;;;2.13;;
12493;SDS011;8260;51.422;6.786;2023-02-28T10:58:53;4.20;;;2.10;;
12493;SDS011;8260;51.422;6.786;2023-02-28T11:01:24;15.68;;;10.85;;
12493;SDS011;8260;51.422;6.786;2023-02-28T11:03:53;2.30;;;2.10;;
12493;SDS011;8260;51.422;6.786;2023-02-28T11:06:24;3.22;;;2.22;;
12493;SDS011;8260;51.422;6.786;2023-02-28T11:08:55;2.88;;;2.10;;
12493;SDS011;8260;51.422;6.786;2023-02-28T11:11:24;3.88;;;2.05;;
12493;SDS011;8260;51.422;6.786;2023-02-28T11:13:57;2.47;;;2.10;;
12493;SDS011;8260;51.422;6.786;2023-02-28T11:16:33;3.20;;;2.13;;
12493;SDS011;8260;51.422;6.786;2023-02-28T11:19:03;4.15;;;2.35;;
12493;SDS011;8260;51.422;6.786;2023-02-28T11:21:33;3.92;;;1.90;;
12493;SDS011;8260;51.422;6.786;2023-02-28T11:24:04;2.78;;;1.92;;
12493;SDS011;8260;51.422;6.786;2023-02-28T11:26:37;3.35;;;1.92;;
12493;SDS011;8260;51.422;6.786;2023-02-28T11:29:16;6.20;;;2.10;;
12493;SDS011;8260;51.422;6.786;2023-02-28T11:34:37;2.35;;;1.80;;
12493;SDS011;8260;51.422;6.786;2023-02-28T11:37:09;2.22;;;1.83;;
12493;SDS011;8260;51.422;6.786;2023-02-28T11:39:38;2.67;;;2.00;;
12493;SDS011;8260;51.422;6.786;2023-02-28T11:42:11;2.15;;;1.95;;
12493;SDS011;8260;51.422;6.786;2023-02-28T11:44:45;2.53;;;2.28;;
12493;SDS011;8260;51.422;6.786;2023-02-28T11:47:19;4.35;;;2.08;;
12493;SDS011;8260;51.422;6.786;2023-02-28T11:49:56;2.20;;;2.00;;
12493;SDS011;8260;51.422;6.786;2023-02-28T11:52:31;4.47;;;2.20;;
12493;SDS011;8260;51.422;6.786;2023-02-28T11:55:06;3.58;;;2.20;;
12493;SDS011;8260;51.422;6.786;2023-02-28T11:57:43;3.35;;;2.03;;
12493;SDS011;8260;51.422;6.786;2023-02-28T12:00:19;2.28;;;2.00;;
12493;SDS011;8260;51.422;6.786;2023-02-28T12:02:59;2.72;;;2.20;;
12493;SDS011;8260;51.422;6.786;2023-02-28T12:05:34;3.35;;;2.20;;
12493;SDS011;8260;51.422;6.786;2023-02-28T12:08:15;3.88;;;2.30;;
12493;SDS011;8260;51.422;6.786;2023-02-28T12:10:51;2.88;;;2.03;;
12493;SDS011;8260;51.422;6.786;2023-02-28T12:13:21;2.55;;;2.10;;
12493;SDS011;8260;51.422;6.786;2023-02-28T12:18:40;2.83;;;1.90;;
12493;SDS011;8260;51.422;6.786;2023-02-28T12:21:14;3.40;;;2.10;;
12493;SDS011;8260;51.422;6.786;2023-02-28T12:23:52;3.13;;;2.40;;
12493;SDS011;8260;51.422;6.786;2023-02-28T12:26:25;2.60;;;2.00;;
12493;SDS011;8260;51.422;6.786;2023-02-28T12:28:58;2.92;;;2.20;;
12493;SDS011;8260;51.422;6.786;2023-02-28T12:31:29;3.38;;;2.50;;
12493;SDS011;8260;51.422;6.786;2023-02-28T12:33:59;2.55;;;2.33;;
12493;SDS011;8260;51.422;6.786;2023-02-28T12:36:31;4.13;;;2.55;;
12493;SDS011;8260;51.422;6.786;2023-02-28T12:39:02;2.85;;;2.20;;
12493;SDS011;8260;51.422;6.786;2023-02-28T12:41:33;2.53;;;2.33;;
12493;SDS011;8260;51.422;6.786;2023-02-28T12:44:06;4.97;;;3.67;;
12493;SDS011;8260;51.422;6.786;2023-02-28T12:46:39;2.55;;;2.33;;
12493;SDS011;8260;51.422;6.786;2023-02-28T12:49:09;2.70;;;2.50;;
12493;SDS011;8260;51.422;6.786;2023-02-28T12:51:40;3.63;;;2.38;;
12493;SDS011;8260;51.422;6.786;2023-02-28T12:54:11;3.05;;;2.60;;
12493;SDS011;8260;51.422;6.786;2023-02-28T12:56:42;3.15;;;2.28;;
12493;SDS011;8260;51.422;6.786;2023-02-28T12:59:13;2.53;;;2.30;;
12493;SDS011;8260;51.422;6.786;2023-02-28T13:01:46;4.35;;;2.15;;
12493;SDS011;8260;51.422;6.786;2023-02-28T13:04:34;5.20;;;2.58;;
12493;SDS011;8260;51.422;6.786;2023-02-28T13:10:04;3.55;;;2.25;;
12493;SDS011;8260;51.422;6.786;2023-02-28T13:12:34;3.05;;;2.50;;
12493;SDS011;8260;51.422;6.786;2023-02-28T13:15:05;3.10;;;2.58;;
12493;SDS011;8260;51.422;6.786;2023-02-28T13:17:38;3.78;;;3.13;;
12493;SDS011;8260;51.422;6.786;2023-02-28T13:20:14;2.55;;;2.30;;
12493;SDS011;8260;51.422;6.786;2023-02-28T13:22:44;2.55;;;2.33;;
12493;SDS011;8260;51.422;6.786;2023-02-28T13:27:58;5.88;;;2.20;;
12493;SDS011;8260;51.422;6.786;2023-02-28T13:33:19;3.22;;;2.80;;
12493;SDS011;8260;51.422;6.786;2023-02-28T13:36:01;2.90;;;2.60;;
12493;SDS011;8260;51.422;6.786;2023-02-28T13:38:36;2.47;;;2.20;;
12493;SDS011;8260;51.422;6.786;2023-02-28T13:44:00;3.50;;;2.75;;
12493;SDS011;8260;51.422;6.786;2023-02-28T13:46:29;2.90;;;2.60;;
12493;SDS011;8260;51.422;6.786;2023-02-28T13:51:42;3.08;;;2.67;;
12493;SDS011;8260;51.422;6.786;2023-02-28T13:59:45;4.10;;;2.88;;
12493;SDS011;8260;51.422;6.786;2023-02-28T14:02:30;3.95;;;3.55;;
12493;SDS011;8260;51.422;6.786;2023-02-28T14:05:05;4.20;;;3.28;;
12493;SDS011;8260;51.422;6.786;2023-02-28T14:07:36;3.10;;;2.90;;
12493;SDS011;8260;51.422;6.786;2023-02-28T14:10:07;4.88;;;3.05;;
12493;SDS011;8260;51.422;6.786;2023-02-28T14:12:55;3.67;;;3.38;;
12493;SDS011;8260;51.422;6.786;2023-02-28T14:18:15;3.60;;;3.30;;
12493;SDS011;8260;51.422;6.786;2023-02-28T14:20:45;3.95;;;3.53;;
12493;SDS011;8260;51.422;6.786;2023-02-28T14:23:16;3.42;;;3.13;;
12493;SDS011;8260;51.422;6.786;2023-02-28T14:25:52;3.95;;;3.05;;
12493;SDS011;8260;51.422;6.786;2023-02-28T14:28:25;3.95;;;3.17;;
12493;SDS011;8260;51.422;6.786;2023-02-28T14:31:00;5.72;;;3.15;;
12493;SDS011;8260;51.422;6.786;2023-02-28T14:33:38;3.65;;;3.10;;
12493;SDS011;8260;51.422;6.786;2023-02-28T14:36:12;3.63;;;2.90;;
12493;SDS011;8260;51.422;6.786;2023-02-28T14:38:43;3.75;;;3.35;;
12493;SDS011;8260;51.422;6.786;2023-02-28T14:41:14;3.70;;;3.35;;
12493;SDS011;8260;51.422;6.786;2023-02-28T14:43:48;3.42;;;3.13;;
12493;SDS011;8260;51.422;6.786;2023-02-28T14:46:17;3.08;;;2.88;;
12493;SDS011;8260;51.422;6.786;2023-02-28T14:48:47;3.33;;;3.10;;
12493;SDS011;8260;51.422;6.786;2023-02-28T14:51:19;3.53;;;3.05;;
12493;SDS011;8260;51.422;6.786;2023-02-28T14:53:49;3.60;;;3.30;;
12493;SDS011;8260;51.422;6.786;2023-02-28T14:56:21;4.10;;;3.28;;
12493;SDS011;8260;51.422;6.786;2023-02-28T14:58:53;3.88;;;3.38;;
12493;SDS011;8260;51.422;6.786;2023-02-28T15:01:23;4.35;;;3.30;;
12493;SDS011;8260;51.422;6.786;2023-02-28T15:04:00;4.65;;;3.20;;
12493;SDS011;8260;51.422;6.786;2023-02-28T15:06:29;4.97;;;3.47;;
12493;SDS011;8260;51.422;6.786;2023-02-28T15:09:08;3.92;;;3.30;;
12493;SDS011;8260;51.422;6.786;2023-02-28T15:11:37;3.55;;;3.25;;
12493;SDS011;8260;51.422;6.786;2023-02-28T15:14:07;2.90;;;2.70;;
12493;SDS011;8260;51.422;6.786;2023-02-28T15:16:41;3.83;;;3.20;;
12493;SDS011;8260;51.422;6.786;2023-02-28T15:19:13;3.30;;;3.05;;
12493;SDS011;8260;51.422;6.786;2023-02-28T15:21:43;3.22;;;2.92;;
12493;SDS011;8260;51.422;6.786;2023-02-28T15:24:13;5.25;;;3.05;;
12493;SDS011;8260;51.422;6.786;2023-02-28T15:26:51;3.78;;;3.47;;
12493;SDS011;8260;51.422;6.786;2023-02-28T15:29:21;3.22;;;3.00;;
12493;SDS011;8260;51.422;6.786;2023-02-28T15:31:51;4.80;;;2.97;;
12493;SDS011;8260;51.422;6.786;2023-02-28T15:34:28;4.45;;;3.40;;
12493;SDS011;8260;51.422;6.786;2023-02-28T15:37:06;5.45;;;3.38;;
12493;SDS011;8260;51.422;6.786;2023-02-28T15:39:40;4.63;;;3.35;;
12493;SDS011;8260;51.422;6.786;2023-02-28T15:42:10;3.97;;;3.63;;
12493;SDS011;8260;51.422;6.786;2023-02-28T15:44:38;3.58;;;3.28;;
12493;SDS011;8260;51.422;6.786;2023-02-28T15:47:12;3.50;;;3.25;;
12493;SDS011;8260;51.422;6.786;2023-02-28T15:49:46;5.30;;;3.40;;
12493;SDS011;8260;51.422;6.786;2023-02-28T15:52:16;3.83;;;3.53;;
12493;SDS011;8260;51.422;6.786;2023-02-28T15:54:45;3.78;;;3.47;;
12493;SDS011;8260;51.422;6.786;2023-02-28T15:57:15;4.18;;;3.78;;
12493;SDS011;8260;51.422;6.786;2023-02-28T15:59:50;4.13;;;3.03;;
12493;SDS011;8260;51.422;6.786;2023-02-28T16:02:21;4.82;;;3.60;;